createdAt,value
2019-02-23T00:01:26.432Z,21.91
2019-02-23T00:02:26.452Z,21.91
2019-02-23T00:04:19.895Z,21.94
2019-02-23T00:05:19.923Z,21.96
2019-02-23T00:07:13.386Z,21.97
2019-02-23T00:08:13.406Z,22.06
2019-02-23T00:10:06.860Z,21.97
2019-02-23T00:11:06.885Z,21.96
2019-02-23T00:13:00.343Z,22.06
2019-02-23T00:14:00.363Z,22.03
2019-02-23T00:15:53.826Z,21.89
2019-02-23T00:16:53.848Z,21.97
2019-02-23T00:18:47.285Z,21.88
2019-02-23T00:19:47.310Z,21.89
2019-02-23T00:21:40.805Z,21.85
2019-02-23T00:22:40.791Z,21.88
2019-02-23T00:24:34.271Z,21.85
2019-02-23T00:25:34.264Z,21.83
2019-02-23T00:27:27.715Z,21.89
2019-02-23T00:28:27.740Z,21.88
2019-02-23T00:30:21.180Z,21.85
2019-02-23T00:31:21.204Z,21.88
2019-02-23T00:33:14.664Z,21.88
2019-02-23T00:34:14.687Z,21.77
2019-02-23T00:36:08.146Z,21.78
2019-02-23T00:37:08.166Z,21.74
2019-02-23T00:39:01.616Z,21.77
2019-02-23T00:40:01.637Z,21.80
2019-02-23T00:41:55.094Z,21.75
2019-02-23T00:42:55.110Z,21.74
2019-02-23T00:44:48.565Z,21.69
2019-02-23T00:45:48.587Z,21.72
2019-02-23T00:47:42.040Z,21.75
2019-02-23T00:48:42.056Z,21.78
2019-02-23T00:50:35.491Z,21.77
2019-02-23T00:51:35.521Z,21.80
2019-02-23T00:53:28.969Z,21.69
2019-02-23T00:54:28.990Z,21.72
2019-02-23T00:56:22.445Z,21.68
2019-02-23T00:57:22.471Z,21.70
2019-02-23T00:59:15.922Z,21.60
2019-02-23T01:00:15.936Z,21.62
2019-02-23T01:02:09.396Z,21.62
2019-02-23T01:03:09.420Z,21.56
2019-02-23T01:05:02.885Z,21.62
2019-02-23T01:06:02.895Z,21.59
2019-02-23T01:07:56.364Z,21.56
2019-02-23T01:08:56.385Z,21.54
2019-02-23T01:10:57.824Z,21.59
2019-02-23T01:11:49.849Z,21.66
2019-02-23T01:13:43.300Z,21.60
2019-02-23T01:14:43.321Z,21.59
2019-02-23T01:16:36.765Z,21.68
2019-02-23T01:17:36.792Z,21.58
2019-02-23T01:19:30.270Z,21.63
2019-02-23T01:20:30.274Z,21.53
2019-02-23T01:22:23.720Z,21.51
2019-02-23T01:23:23.743Z,21.59
2019-02-23T01:25:17.186Z,21.60
2019-02-23T01:26:17.215Z,21.65
2019-02-23T01:28:10.665Z,21.59
2019-02-23T01:29:10.686Z,21.56
2019-02-23T01:31:04.124Z,21.62
2019-02-23T01:32:04.155Z,21.62
2019-02-23T01:33:57.611Z,21.60
2019-02-23T01:34:57.627Z,21.51
2019-02-23T01:36:51.090Z,21.59
2019-02-23T01:37:51.099Z,21.60
2019-02-23T01:39:44.545Z,21.58
2019-02-23T01:40:44.564Z,21.48
2019-02-23T01:42:38.028Z,21.60
2019-02-23T01:43:38.048Z,21.63
2019-02-23T01:45:41.851Z,21.58
2019-02-23T01:46:31.523Z,21.59
2019-02-23T01:48:24.990Z,21.50
2019-02-23T01:49:25.012Z,21.51
2019-02-23T01:51:18.452Z,21.45
2019-02-23T01:52:18.479Z,21.45
2019-02-23T01:54:11.924Z,21.53
2019-02-23T01:55:11.950Z,21.48
2019-02-23T01:57:05.409Z,21.50
2019-02-23T01:58:05.425Z,21.45
2019-02-23T01:59:58.881Z,21.40
2019-02-23T02:00:58.905Z,21.40
2019-02-23T02:02:53.350Z,21.41
2019-02-23T02:03:53.370Z,21.37
2019-02-23T02:05:46.811Z,21.40
2019-02-23T02:06:46.836Z,21.32
2019-02-23T02:08:40.287Z,21.37
2019-02-23T02:09:40.308Z,21.40
2019-02-23T02:11:33.747Z,21.45
2019-02-23T02:12:33.775Z,21.38
2019-02-23T02:14:27.228Z,21.40
2019-02-23T02:15:27.248Z,21.48
2019-02-23T02:17:20.701Z,21.41
2019-02-23T02:18:20.731Z,21.40
2019-02-23T02:20:14.190Z,21.38
2019-02-23T02:21:14.210Z,21.41
2019-02-23T02:23:07.657Z,21.37
2019-02-23T02:24:07.687Z,21.43
2019-02-23T02:26:01.121Z,21.37
2019-02-23T02:27:01.148Z,21.30
2019-02-23T02:28:54.601Z,21.30
2019-02-23T02:29:54.622Z,21.26
2019-02-23T02:31:48.061Z,21.26
2019-02-23T02:32:48.092Z,21.32
2019-02-23T02:34:41.547Z,21.26
2019-02-23T02:35:41.567Z,21.26
2019-02-23T02:37:35.009Z,21.25
2019-02-23T02:38:35.106Z,21.29
2019-02-23T02:40:28.506Z,21.20
2019-02-23T02:41:28.521Z,21.22
2019-02-23T02:43:21.978Z,21.25
2019-02-23T02:44:21.998Z,21.25
2019-02-23T02:46:15.454Z,21.20
2019-02-23T02:47:15.475Z,21.13
2019-02-23T02:49:08.933Z,21.05
2019-02-23T02:50:08.962Z,21.05
2019-02-23T02:52:02.394Z,21.11
2019-02-23T02:53:02.420Z,21.13
2019-02-23T02:54:55.875Z,21.22
2019-02-23T02:55:55.895Z,21.11
2019-02-23T02:57:49.368Z,21.03
2019-02-23T02:58:49.371Z,21.04
2019-02-23T03:00:42.832Z,21.20
2019-02-23T03:01:42.855Z,21.08
2019-02-23T03:03:36.329Z,21.04
2019-02-23T03:04:36.331Z,21.03
2019-02-23T03:06:29.803Z,21.05
2019-02-23T03:07:29.803Z,21.04
2019-02-23T03:09:23.271Z,21.07
2019-02-23T03:10:23.279Z,21.07
2019-02-23T03:12:16.728Z,21.03
2019-02-23T03:13:16.802Z,21.05
2019-02-23T03:15:10.199Z,21.07
2019-02-23T03:16:10.222Z,21.00
2019-02-23T03:18:03.672Z,21.10
2019-02-23T03:19:03.692Z,20.96
2019-02-23T03:20:57.143Z,21.10
2019-02-23T03:21:57.164Z,20.89
2019-02-23T03:23:50.639Z,21.00
2019-02-23T03:24:50.644Z,20.92
2019-02-23T03:26:44.080Z,21.01
2019-02-23T03:27:44.111Z,21.08
2019-02-23T03:29:37.556Z,21.05
2019-02-23T03:30:37.584Z,21.03
2019-02-23T03:32:31.026Z,20.95
2019-02-23T03:33:31.050Z,21.00
2019-02-23T03:35:24.495Z,21.01
2019-02-23T03:36:24.520Z,20.96
2019-02-23T03:38:17.965Z,20.93
2019-02-23T03:39:17.987Z,21.01
2019-02-23T03:41:11.441Z,20.92
2019-02-23T03:42:11.463Z,20.98
2019-02-23T03:44:04.904Z,20.92
2019-02-23T03:45:04.939Z,20.95
2019-02-23T03:46:58.391Z,20.93
2019-02-23T03:47:58.425Z,20.95
2019-02-23T03:49:51.882Z,20.92
2019-02-23T03:50:51.893Z,21.00
2019-02-23T03:52:45.335Z,20.95
2019-02-23T03:53:45.356Z,20.95
2019-02-23T03:55:38.812Z,20.85
2019-02-23T03:56:38.829Z,20.90
2019-02-23T03:58:32.277Z,21.04
2019-02-23T03:59:32.305Z,20.92
2019-02-23T04:01:25.751Z,20.92
2019-02-23T04:02:25.782Z,21.03
2019-02-23T04:04:19.206Z,21.03
2019-02-23T04:05:19.236Z,20.95
2019-02-23T04:07:12.693Z,20.92
2019-02-23T04:08:12.702Z,21.07
2019-02-23T04:10:06.164Z,20.95
2019-02-23T04:11:06.184Z,20.95
2019-02-23T04:12:59.689Z,20.93
2019-02-23T04:13:59.660Z,20.93
2019-02-23T04:15:53.129Z,20.90
2019-02-23T04:16:53.147Z,20.89
2019-02-23T04:18:46.598Z,20.89
2019-02-23T04:19:46.624Z,20.96
2019-02-23T04:21:40.095Z,20.88
2019-02-23T04:22:40.125Z,20.92
2019-02-23T04:24:33.561Z,21.01
2019-02-23T04:25:33.585Z,20.92
2019-02-23T04:27:27.048Z,20.90
2019-02-23T04:28:27.065Z,20.92
2019-02-23T04:30:20.533Z,21.00
2019-02-23T04:31:20.547Z,20.93
2019-02-23T04:33:14.007Z,20.92
2019-02-23T04:34:14.028Z,20.96
2019-02-23T04:36:07.485Z,20.88
2019-02-23T04:37:07.502Z,20.90
2019-02-23T04:39:00.943Z,20.82
2019-02-23T04:40:00.969Z,21.03
2019-02-23T04:41:54.416Z,21.00
2019-02-23T04:42:54.441Z,20.98
2019-02-23T04:44:47.896Z,20.89
2019-02-23T04:45:47.947Z,20.89
2019-02-23T04:47:41.371Z,20.89
2019-02-23T04:48:41.387Z,20.90
2019-02-23T04:50:34.843Z,20.93
2019-02-23T04:51:34.867Z,20.88
2019-02-23T04:53:28.297Z,20.89
2019-02-23T04:54:28.327Z,20.88
2019-02-23T04:56:21.783Z,20.92
2019-02-23T04:57:21.801Z,20.88
2019-02-23T04:59:15.251Z,20.86
2019-02-23T05:00:15.287Z,20.90
2019-02-23T05:02:08.729Z,20.85
2019-02-23T05:03:08.746Z,20.83
2019-02-23T05:05:02.196Z,20.88
2019-02-23T05:06:02.220Z,20.86
2019-02-23T05:07:55.680Z,20.83
2019-02-23T05:08:55.697Z,20.82
2019-02-23T05:10:49.155Z,20.85
2019-02-23T05:11:51.527Z,20.78
2019-02-23T05:13:42.623Z,20.78
2019-02-23T05:14:42.647Z,20.80
2019-02-23T05:16:36.096Z,20.70
2019-02-23T05:17:36.113Z,20.68
2019-02-23T05:19:29.567Z,20.77
2019-02-23T05:20:29.592Z,20.75
2019-02-23T05:22:23.044Z,20.75
2019-02-23T05:23:23.061Z,20.71
2019-02-23T05:25:16.504Z,20.75
2019-02-23T05:26:16.531Z,20.86
2019-02-23T05:28:09.984Z,20.77
2019-02-23T05:29:10.007Z,20.73
2019-02-23T05:31:03.460Z,20.74
2019-02-23T05:32:03.474Z,20.70
2019-02-23T05:33:56.921Z,20.68
2019-02-23T05:34:56.964Z,20.77
2019-02-23T05:36:50.395Z,20.73
2019-02-23T05:37:50.413Z,20.77
2019-02-23T05:39:43.864Z,20.77
2019-02-23T05:40:43.895Z,20.73
2019-02-23T05:42:37.345Z,20.78
2019-02-23T05:43:37.362Z,20.77
2019-02-23T05:45:30.799Z,20.70
2019-02-23T05:46:30.830Z,20.71
2019-02-23T05:48:24.269Z,20.77
2019-02-23T05:49:24.290Z,20.74
2019-02-23T05:51:17.743Z,20.70
2019-02-23T05:52:17.768Z,20.73
2019-02-23T05:54:11.203Z,20.73
2019-02-23T05:55:11.228Z,20.71
2019-02-23T05:57:04.683Z,20.73
2019-02-23T05:58:04.700Z,20.71
2019-02-23T05:59:58.139Z,20.73
2019-02-23T06:00:58.167Z,20.70
2019-02-23T06:02:51.612Z,20.71
2019-02-23T06:03:51.629Z,20.70
2019-02-23T06:05:45.095Z,20.75
2019-02-23T06:06:45.128Z,20.77
2019-02-23T06:08:38.582Z,20.71
2019-02-23T06:09:38.600Z,20.77
2019-02-23T06:11:32.082Z,20.80
2019-02-23T06:12:32.067Z,20.80
2019-02-23T06:14:25.571Z,20.85
2019-02-23T06:15:25.557Z,20.95
2019-02-23T06:17:19.011Z,21.00
2019-02-23T06:18:19.020Z,21.07
2019-02-23T06:20:12.467Z,21.04
2019-02-23T06:21:12.502Z,21.07
2019-02-23T06:23:05.965Z,21.08
2019-02-23T06:24:05.973Z,21.13
2019-02-23T06:25:59.427Z,21.13
2019-02-23T06:26:59.463Z,21.13
2019-02-23T06:28:52.913Z,21.19
2019-02-23T06:29:52.906Z,21.22
2019-02-23T06:31:46.373Z,21.28
2019-02-23T06:32:46.390Z,21.25
2019-02-23T06:34:39.844Z,21.40
2019-02-23T06:35:39.858Z,21.40
2019-02-23T06:37:33.328Z,21.37
2019-02-23T06:38:33.334Z,21.48
2019-02-23T06:40:26.800Z,21.56
2019-02-23T06:41:26.826Z,21.50
2019-02-23T06:43:20.269Z,21.62
2019-02-23T06:44:20.290Z,21.58
2019-02-23T06:46:13.743Z,21.50
2019-02-23T06:47:13.757Z,21.65
2019-02-23T06:49:08.209Z,21.62
2019-02-23T06:50:08.232Z,21.63
2019-02-23T06:52:04.585Z,21.68
2019-02-23T06:53:01.690Z,21.70
2019-02-23T06:54:55.142Z,21.72
2019-02-23T06:55:55.161Z,21.75
2019-02-23T06:57:48.646Z,21.91
2019-02-23T06:58:48.641Z,21.85
2019-02-23T07:00:42.125Z,21.89
2019-02-23T07:01:42.135Z,21.89
2019-02-23T07:03:35.594Z,21.94
2019-02-23T07:04:35.612Z,21.88
2019-02-23T07:06:29.072Z,21.85
2019-02-23T07:07:29.096Z,21.84
2019-02-23T07:09:22.543Z,21.88
2019-02-23T07:10:22.563Z,21.85
2019-02-23T07:12:16.045Z,21.92
2019-02-23T07:13:16.029Z,21.85
2019-02-23T07:15:09.506Z,21.89
2019-02-23T07:16:09.521Z,21.89
2019-02-23T07:18:02.963Z,21.83
2019-02-23T07:19:02.983Z,21.83
2019-02-23T07:20:56.468Z,21.91
2019-02-23T07:21:56.455Z,21.84
2019-02-23T07:23:49.948Z,21.85
2019-02-23T07:24:49.924Z,21.94
2019-02-23T07:26:43.363Z,21.96
2019-02-23T07:27:43.392Z,21.91
2019-02-23T07:29:36.841Z,21.92
2019-02-23T07:30:36.865Z,21.91
2019-02-23T07:32:30.310Z,22.01
2019-02-23T07:33:33.170Z,22.00
2019-02-23T07:35:23.776Z,22.01
2019-02-23T07:36:23.804Z,21.99
2019-02-23T07:38:17.263Z,22.06
2019-02-23T07:39:17.284Z,22.03
2019-02-23T07:41:10.724Z,22.00
2019-02-23T07:42:10.753Z,22.15
2019-02-23T07:44:04.205Z,22.14
2019-02-23T07:45:04.228Z,22.07
2019-02-23T07:46:57.684Z,22.10
2019-02-23T07:47:57.707Z,22.14
2019-02-23T07:49:51.153Z,22.19
2019-02-23T07:50:52.641Z,22.19
2019-02-23T07:52:44.656Z,22.26
2019-02-23T07:53:44.660Z,22.21
2019-02-23T07:55:38.100Z,22.19
2019-02-23T07:56:38.143Z,22.31
2019-02-23T07:58:31.585Z,22.30
2019-02-23T07:59:31.604Z,22.25
2019-02-23T08:01:25.060Z,22.31
2019-02-23T08:02:25.855Z,22.26
2019-02-23T08:04:18.543Z,22.33
2019-02-23T08:05:18.543Z,22.40
2019-02-23T08:07:11.991Z,22.47
2019-02-23T08:08:12.014Z,22.55
2019-02-23T08:10:05.958Z,22.56
2019-02-23T08:11:05.979Z,22.51
2019-02-23T08:12:59.431Z,22.62
2019-02-23T08:13:59.451Z,22.52
2019-02-23T08:15:52.897Z,22.58
2019-02-23T08:16:52.930Z,22.58
2019-02-23T08:18:46.386Z,22.55
2019-02-23T08:19:46.404Z,22.58
2019-02-23T08:21:39.853Z,22.58
2019-02-23T08:22:39.880Z,22.65
2019-02-23T08:24:33.333Z,22.61
2019-02-23T08:25:33.352Z,22.65
2019-02-23T08:27:26.802Z,22.77
2019-02-23T08:28:26.817Z,22.78
2019-02-23T08:30:20.270Z,22.71
2019-02-23T08:31:20.286Z,22.81
2019-02-23T08:33:13.745Z,22.71
2019-02-23T08:34:13.752Z,22.78
2019-02-23T08:36:07.200Z,22.81
2019-02-23T08:37:07.238Z,22.76
2019-02-23T08:39:00.670Z,22.81
2019-02-23T08:40:00.697Z,22.80
2019-02-23T08:41:54.128Z,22.84
2019-02-23T08:42:54.156Z,22.80
2019-02-23T08:44:47.627Z,22.88
2019-02-23T08:45:47.634Z,22.91
2019-02-23T08:47:42.068Z,22.80
2019-02-23T08:48:42.099Z,22.96
2019-02-23T08:50:35.588Z,22.96
2019-02-23T08:51:35.576Z,22.95
2019-02-23T08:53:29.020Z,23.10
2019-02-23T08:54:29.040Z,23.04
2019-02-23T08:56:22.501Z,23.13
2019-02-23T08:57:22.507Z,23.17
2019-02-23T08:59:15.459Z,23.17
2019-02-23T09:00:15.479Z,23.14
2019-02-23T09:02:08.916Z,23.14
2019-02-23T09:03:08.946Z,23.11
2019-02-23T09:05:01.899Z,23.17
2019-02-23T09:06:01.921Z,23.23
2019-02-23T09:07:55.864Z,23.14
2019-02-23T09:08:55.903Z,23.16
2019-02-23T09:10:49.348Z,23.21
2019-02-23T09:11:49.371Z,23.11
2019-02-23T09:13:42.815Z,23.20
2019-02-23T09:14:42.839Z,23.17
2019-02-23T09:16:36.295Z,23.26
2019-02-23T09:17:36.304Z,23.29
2019-02-23T09:19:29.751Z,23.29
2019-02-23T09:20:29.855Z,23.28
2019-02-23T09:22:23.228Z,23.42
2019-02-23T09:23:23.252Z,23.32
2019-02-23T09:25:16.716Z,23.44
2019-02-23T09:26:16.854Z,23.44
2019-02-23T09:28:10.183Z,23.39
2019-02-23T09:29:10.208Z,23.42
2019-02-23T09:31:03.712Z,23.39
2019-02-23T09:32:03.683Z,23.39
2019-02-23T09:33:57.131Z,23.29
2019-02-23T09:34:57.157Z,23.37
2019-02-23T09:36:50.604Z,23.36
2019-02-23T09:37:50.622Z,23.39
2019-02-23T09:39:44.072Z,23.39
2019-02-23T09:40:44.088Z,23.39
2019-02-23T09:42:37.544Z,23.37
2019-02-23T09:43:37.579Z,23.36
2019-02-23T09:45:31.021Z,23.37
2019-02-23T09:46:31.036Z,23.44
2019-02-23T09:48:23.981Z,23.40
2019-02-23T09:49:24.008Z,23.44
2019-02-23T09:51:16.968Z,23.44
2019-02-23T09:52:16.986Z,23.37
2019-02-23T09:54:10.443Z,23.44
2019-02-23T09:55:10.463Z,23.40
2019-02-23T09:57:03.902Z,23.44
2019-02-23T09:58:03.930Z,23.45
2019-02-23T09:59:57.376Z,23.44
2019-02-23T10:00:57.397Z,23.42
2019-02-23T10:02:50.848Z,23.33
2019-02-23T10:03:50.876Z,23.48
2019-02-23T10:05:44.344Z,23.49
2019-02-23T10:06:44.355Z,23.45
2019-02-23T10:08:37.299Z,23.42
2019-02-23T10:09:37.328Z,23.48
2019-02-23T10:11:30.773Z,23.49
2019-02-23T10:12:30.797Z,23.45
2019-02-23T10:14:24.238Z,23.40
2019-02-23T10:15:24.267Z,23.49
2019-02-23T10:17:17.718Z,23.45
2019-02-23T10:18:17.739Z,23.42
2019-02-23T10:20:10.690Z,23.34
2019-02-23T10:21:10.710Z,23.40
2019-02-23T10:23:03.653Z,23.34
2019-02-23T10:24:03.678Z,23.45
2019-02-23T10:25:56.637Z,23.51
2019-02-23T10:26:56.662Z,23.51
2019-02-23T10:28:49.604Z,23.56
2019-02-23T10:29:49.634Z,23.55
2019-02-23T10:31:42.583Z,23.59
2019-02-23T10:32:42.605Z,23.62
2019-02-23T10:34:36.044Z,23.63
2019-02-23T10:35:36.075Z,23.58
2019-02-23T10:37:29.517Z,23.67
2019-02-23T10:38:29.539Z,23.66
2019-02-23T10:40:22.994Z,23.67
2019-02-23T10:41:23.016Z,23.70
2019-02-23T10:43:16.453Z,23.66
2019-02-23T10:44:16.482Z,23.69
2019-02-23T10:46:09.930Z,23.70
2019-02-23T10:47:09.952Z,23.70
2019-02-23T10:49:03.401Z,23.73
2019-02-23T10:50:03.431Z,23.70
2019-02-23T10:51:56.386Z,23.70
2019-02-23T10:52:56.406Z,23.73
2019-02-23T10:54:49.844Z,23.76
2019-02-23T10:55:49.872Z,23.76
2019-02-23T10:57:42.833Z,23.76
2019-02-23T10:58:42.853Z,23.77
2019-02-23T11:00:36.306Z,23.82
2019-02-23T11:01:36.331Z,23.79
2019-02-23T11:03:29.273Z,23.82
2019-02-23T11:04:29.303Z,23.84
2019-02-23T11:06:22.761Z,23.82
2019-02-23T11:07:22.778Z,23.84
2019-02-23T11:09:15.722Z,23.85
2019-02-23T11:10:15.748Z,23.81
2019-02-23T11:12:09.203Z,23.82
2019-02-23T11:13:09.216Z,23.89
2019-02-23T11:15:02.162Z,23.86
2019-02-23T11:16:02.187Z,23.94
2019-02-23T11:17:55.659Z,23.84
2019-02-23T11:18:55.668Z,23.89
2019-02-23T11:20:49.120Z,23.89
2019-02-23T11:21:49.146Z,23.84
2019-02-23T11:23:44.498Z,23.96
2019-02-23T11:24:42.620Z,23.91
2019-02-23T11:26:36.082Z,23.99
2019-02-23T11:27:36.098Z,23.91
2019-02-23T11:29:30.384Z,23.95
2019-02-23T11:30:29.562Z,23.94
2019-02-23T11:32:23.030Z,23.95
2019-02-23T11:33:23.042Z,24.00
2019-02-23T11:35:17.596Z,23.92
2019-02-23T11:36:16.518Z,23.95
2019-02-23T11:38:10.004Z,24.01
2019-02-23T11:39:09.987Z,23.95
2019-02-23T11:41:03.446Z,24.09
2019-02-23T11:42:03.462Z,24.10
2019-02-23T11:43:56.907Z,24.11
2019-02-23T11:44:56.931Z,24.06
2019-02-23T11:46:59.786Z,24.06
2019-02-23T11:47:50.414Z,24.11
2019-02-23T11:49:43.855Z,24.07
2019-02-23T11:50:43.887Z,24.11
2019-02-23T11:52:39.321Z,24.22
2019-02-23T11:53:36.906Z,24.07
2019-02-23T11:55:30.376Z,24.21
2019-02-23T11:56:30.403Z,24.24
2019-02-23T11:58:23.359Z,24.25
2019-02-23T11:59:23.378Z,24.24
2019-02-23T12:01:16.334Z,24.34
2019-02-23T12:02:16.354Z,24.40
2019-02-23T12:04:09.804Z,24.38
2019-02-23T12:05:09.833Z,24.36
2019-02-23T12:07:03.282Z,24.38
2019-02-23T12:08:03.305Z,24.44
2019-02-23T12:09:56.249Z,24.46
2019-02-23T12:10:56.284Z,24.41
2019-02-23T12:12:49.738Z,24.43
2019-02-23T12:13:49.760Z,24.38
2019-02-23T12:15:43.197Z,24.38
2019-02-23T12:16:43.228Z,24.41
2019-02-23T12:18:36.687Z,24.50
2019-02-23T12:19:36.706Z,24.48
2019-02-23T12:21:30.162Z,24.51
2019-02-23T12:22:30.177Z,24.55
2019-02-23T12:24:23.625Z,24.50
2019-02-23T12:25:23.657Z,24.58
2019-02-23T12:27:16.621Z,24.56
2019-02-23T12:28:16.638Z,24.51
2019-02-23T12:30:09.585Z,24.59
2019-02-23T12:31:09.624Z,24.62
2019-02-23T12:33:02.572Z,24.82
2019-02-23T12:34:02.590Z,24.93
2019-02-23T12:35:55.539Z,25.04
2019-02-23T12:36:57.536Z,25.06
2019-02-23T12:38:48.524Z,25.11
2019-02-23T12:39:48.544Z,25.03
2019-02-23T12:41:41.500Z,25.21
2019-02-23T12:42:41.520Z,25.22
2019-02-23T12:44:34.464Z,25.26
2019-02-23T12:45:34.492Z,25.29
2019-02-23T12:47:27.451Z,25.55
2019-02-23T12:48:27.478Z,25.66
2019-02-23T12:50:20.919Z,25.83
2019-02-23T12:51:20.950Z,26.06
2019-02-23T12:53:13.908Z,26.52
2019-02-23T12:54:16.772Z,26.63
2019-02-23T12:56:06.879Z,27.03
2019-02-23T12:57:06.909Z,27.29
2019-02-23T12:58:59.882Z,27.75
2019-02-23T12:59:59.905Z,27.60
2019-02-23T13:01:52.864Z,27.94
2019-02-23T13:02:52.888Z,28.04
2019-02-23T13:04:45.832Z,28.20
2019-02-23T13:05:45.862Z,28.28
2019-02-23T13:07:38.815Z,28.33
2019-02-23T13:08:38.839Z,28.23
2019-02-23T13:10:31.791Z,28.23
2019-02-23T13:11:31.822Z,28.00
2019-02-23T13:13:24.777Z,27.83
2019-02-23T13:14:24.800Z,27.72
2019-02-23T13:16:17.752Z,27.38
2019-02-23T13:17:17.783Z,27.29
2019-02-23T13:19:11.242Z,27.08
2019-02-23T13:20:11.264Z,26.93
2019-02-23T13:22:04.227Z,26.97
2019-02-23T13:23:04.245Z,26.86
2019-02-23T13:24:57.194Z,26.79
2019-02-23T13:25:57.227Z,26.79
2019-02-23T13:27:50.183Z,26.68
2019-02-23T13:28:50.335Z,26.68
2019-02-23T13:30:43.153Z,26.63
2019-02-23T13:31:43.186Z,26.71
2019-02-23T13:33:36.143Z,26.66
2019-02-23T13:34:36.164Z,26.49
2019-02-23T13:36:29.114Z,26.49
2019-02-23T13:37:29.147Z,26.56
2019-02-23T13:39:22.598Z,26.42
2019-02-23T13:40:22.618Z,26.41
2019-02-23T13:42:15.569Z,26.31
2019-02-23T13:43:15.602Z,26.41
2019-02-23T13:45:09.052Z,26.36
2019-02-23T13:46:09.077Z,26.29
2019-02-23T13:48:02.540Z,26.45
2019-02-23T13:49:02.564Z,26.44
2019-02-23T13:50:56.023Z,26.56
2019-02-23T13:51:56.045Z,26.51
2019-02-23T13:53:49.502Z,26.52
2019-02-23T13:54:49.518Z,26.52
2019-02-23T13:56:42.961Z,26.36
2019-02-23T13:57:42.987Z,26.34
2019-02-23T13:59:36.441Z,26.26
2019-02-23T14:00:36.466Z,26.23
2019-02-23T14:02:29.908Z,26.27
2019-02-23T14:03:29.939Z,26.23
2019-02-23T14:05:23.393Z,26.26
2019-02-23T14:06:23.413Z,26.29
2019-02-23T14:08:16.862Z,26.33
2019-02-23T14:09:16.885Z,26.33
2019-02-23T14:11:10.337Z,26.36
2019-02-23T14:12:10.370Z,26.34
2019-02-23T14:14:03.821Z,26.33
2019-02-23T14:15:03.846Z,26.33
2019-02-23T14:16:57.296Z,26.37
2019-02-23T14:17:57.328Z,26.34
2019-02-23T14:19:50.781Z,26.41
2019-02-23T14:20:50.803Z,26.34
2019-02-23T14:22:43.763Z,26.48
2019-02-23T14:23:43.786Z,26.41
2019-02-23T14:25:37.237Z,26.36
2019-02-23T14:26:37.259Z,26.42
2019-02-23T14:28:30.895Z,26.51
2019-02-23T14:29:30.917Z,26.48
2019-02-23T14:31:24.369Z,26.44
2019-02-23T14:32:24.394Z,26.42
2019-02-23T14:34:17.884Z,26.51
2019-02-23T14:35:17.897Z,26.48
2019-02-23T14:37:11.413Z,26.51
2019-02-23T14:38:11.382Z,26.52
2019-02-23T14:40:04.845Z,26.48
2019-02-23T14:41:04.886Z,26.44
2019-02-23T14:42:57.821Z,26.39
2019-02-23T14:43:57.852Z,26.42
2019-02-23T14:45:51.332Z,26.37
2019-02-23T14:46:51.330Z,26.34
2019-02-23T14:48:44.791Z,26.36
2019-02-23T14:49:44.820Z,26.26
2019-02-23T14:51:38.259Z,26.31
2019-02-23T14:52:38.293Z,26.37
2019-02-23T14:54:31.817Z,26.34
2019-02-23T14:55:31.761Z,26.46
2019-02-23T14:57:25.240Z,26.39
2019-02-23T14:58:25.243Z,26.36
2019-02-23T15:00:18.695Z,26.34
2019-02-23T15:01:18.719Z,26.41
2019-02-23T15:03:12.173Z,26.34
2019-02-23T15:04:12.207Z,26.34
2019-02-23T15:06:05.670Z,26.31
2019-02-23T15:07:05.687Z,26.42
2019-02-23T15:08:58.641Z,26.36
2019-02-23T15:09:58.673Z,26.45
2019-02-23T15:11:52.133Z,26.45
2019-02-23T15:12:52.157Z,26.36
2019-02-23T15:14:45.650Z,26.36
2019-02-23T15:15:45.629Z,26.46
2019-02-23T15:17:39.083Z,26.34
2019-02-23T15:18:39.114Z,26.34
2019-02-23T15:20:32.575Z,26.41
2019-02-23T15:21:32.598Z,26.49
2019-02-23T15:23:26.040Z,26.48
2019-02-23T15:24:26.071Z,26.49
2019-02-23T15:26:19.522Z,26.51
2019-02-23T15:27:19.546Z,26.45
2019-02-23T15:29:12.983Z,26.46
2019-02-23T15:30:13.015Z,26.31
2019-02-23T15:32:06.465Z,26.27
2019-02-23T15:33:06.486Z,26.18
2019-02-23T15:34:59.946Z,26.08
2019-02-23T15:35:59.967Z,26.23
2019-02-23T15:37:53.529Z,26.15
2019-02-23T15:38:53.451Z,26.13
2019-02-23T15:40:46.919Z,26.15
2019-02-23T15:41:46.932Z,26.08
2019-02-23T15:43:39.911Z,26.18
2019-02-23T15:44:39.913Z,26.10
2019-02-23T15:46:32.898Z,26.10
2019-02-23T15:47:32.950Z,26.11
2019-02-23T15:49:26.415Z,26.01
2019-02-23T15:50:26.395Z,25.93
2019-02-23T15:52:19.374Z,26.03
2019-02-23T15:53:19.373Z,25.91
2019-02-23T15:55:25.322Z,25.80
2019-02-23T15:56:13.828Z,25.81
2019-02-23T15:58:06.774Z,25.80
2019-02-23T15:59:06.803Z,25.86
2019-02-23T16:00:59.761Z,25.89
2019-02-23T16:01:59.779Z,25.88
2019-02-23T16:03:52.731Z,25.85
2019-02-23T16:04:53.004Z,25.86
2019-02-23T16:06:46.206Z,25.92
2019-02-23T16:07:46.230Z,25.92
2019-02-23T16:09:39.189Z,25.92
2019-02-23T16:10:39.205Z,25.95
2019-02-23T16:12:32.167Z,25.92
2019-02-23T16:13:32.187Z,25.92
2019-02-23T16:15:25.137Z,25.95
2019-02-23T16:16:25.167Z,25.85
2019-02-23T16:18:18.123Z,25.74
2019-02-23T16:19:18.143Z,25.81
2019-02-23T16:21:11.165Z,25.81
2019-02-23T16:22:11.121Z,25.80
2019-02-23T16:24:04.067Z,25.78
2019-02-23T16:25:04.096Z,25.78
2019-02-23T16:26:57.050Z,25.93
2019-02-23T16:27:57.075Z,25.83
2019-02-23T16:29:50.033Z,25.91
2019-02-23T16:30:50.062Z,25.88
2019-02-23T16:32:43.029Z,25.81
2019-02-23T16:33:43.035Z,25.81
2019-02-23T16:35:36.001Z,25.80
2019-02-23T16:36:36.012Z,25.80
2019-02-23T16:38:28.973Z,25.80
2019-02-23T16:39:28.997Z,25.78
2019-02-23T16:41:21.956Z,25.80
2019-02-23T16:42:21.972Z,25.83
2019-02-23T16:44:15.057Z,25.74
2019-02-23T16:45:14.961Z,25.68
2019-02-23T16:47:08.400Z,25.71
2019-02-23T16:48:08.425Z,25.70
2019-02-23T16:50:01.876Z,25.59
2019-02-23T16:51:01.904Z,25.56
2019-02-23T16:52:56.386Z,25.59
2019-02-23T16:53:56.384Z,25.46
2019-02-23T16:55:51.109Z,25.41
2019-02-23T16:56:49.362Z,25.51
2019-02-23T16:58:42.813Z,25.54
2019-02-23T16:59:42.835Z,25.48
2019-02-23T17:01:36.285Z,25.51
2019-02-23T17:02:36.305Z,25.48
2019-02-23T17:04:29.778Z,25.48
2019-02-23T17:05:29.786Z,25.46
2019-02-23T17:07:23.235Z,25.48
2019-02-23T17:08:23.259Z,25.44
2019-02-23T17:10:16.702Z,25.41
2019-02-23T17:11:16.736Z,25.36
2019-02-23T17:13:10.183Z,25.33
2019-02-23T17:14:10.202Z,25.37
2019-02-23T17:16:03.646Z,25.22
2019-02-23T17:17:03.680Z,25.21
2019-02-23T17:18:57.142Z,25.31
2019-02-23T17:19:57.156Z,25.31
2019-02-23T17:21:50.619Z,25.26
2019-02-23T17:22:50.635Z,25.26
2019-02-23T17:24:43.593Z,25.30
2019-02-23T17:25:43.615Z,25.26
2019-02-23T17:27:37.075Z,25.29
2019-02-23T17:28:37.096Z,25.26
2019-02-23T17:30:30.571Z,25.30
2019-02-23T17:31:30.576Z,25.30
2019-02-23T17:33:24.060Z,25.30
2019-02-23T17:34:24.069Z,25.25
2019-02-23T17:36:17.507Z,25.29
2019-02-23T17:37:17.540Z,25.24
2019-02-23T17:39:11.001Z,25.22
2019-02-23T17:40:11.021Z,25.24
2019-02-23T17:42:04.492Z,25.22
2019-02-23T17:43:04.520Z,25.26
2019-02-23T17:44:57.950Z,25.24
2019-02-23T17:45:57.976Z,25.24
2019-02-23T17:47:51.445Z,25.22
2019-02-23T17:48:51.461Z,25.18
2019-02-23T17:50:44.913Z,25.29
2019-02-23T17:51:44.941Z,25.24
2019-02-23T17:53:39.395Z,25.22
2019-02-23T17:54:39.413Z,25.26
2019-02-23T17:56:32.858Z,25.25
2019-02-23T17:57:32.885Z,25.19
2019-02-23T17:59:26.355Z,25.21
2019-02-23T18:00:26.373Z,25.21
2019-02-23T18:02:19.820Z,25.16
2019-02-23T18:03:19.846Z,25.19
2019-02-23T18:05:13.288Z,25.18
2019-02-23T18:06:13.322Z,25.07
2019-02-23T18:08:06.776Z,25.19
2019-02-23T18:09:06.804Z,25.22
2019-02-23T18:11:00.586Z,25.21
2019-02-23T18:12:00.277Z,25.21
2019-02-23T18:13:53.731Z,25.18
2019-02-23T18:14:53.749Z,25.26
2019-02-23T18:16:47.202Z,25.25
2019-02-23T18:17:47.231Z,25.22
2019-02-23T18:19:40.699Z,25.21
2019-02-23T18:20:40.716Z,25.19
2019-02-23T18:22:35.193Z,25.15
2019-02-23T18:23:35.207Z,25.12
2019-02-23T18:25:28.661Z,25.07
2019-02-23T18:26:28.670Z,25.12
2019-02-23T18:28:22.138Z,25.19
2019-02-23T18:29:22.174Z,25.06
2019-02-23T18:31:15.609Z,25.11
2019-02-23T18:32:15.638Z,25.03
2019-02-23T18:34:09.099Z,25.11
2019-02-23T18:35:09.123Z,25.01
2019-02-23T18:37:02.582Z,25.06